Time;durP1;ratioP1;P1;durP2;ratioP2;P2;SDS_P1;SDS_P2;PMS_P1;PMS_P2;Temp;Humidity;BMP_temperature;BMP_pressure;BME280_temperature;BME280_humidity;BME280_pressure;Samples;Min_cycle;Max_cycle;Signal;HPM_P1;HPM_P2
2024/01/19 00:02:22;;;;;;;;;;;;;;;-3.50;100.00;100782.44;4898725;29;19963;-74
2024/01/19 00:04:47;;;;;;;;;;;;;;;-3.47;100.00;100783.19;4900542;29;20447;-74
2024/01/19 00:07:12;;;;;;;;;;;;;;;-3.51;100.00;100786.03;4897946;29;20230;-74
2024/01/19 00:09:37;;;;;;;;;;;;;;;-3.50;100.00;100782.44;4899448;29;19928;-74
2024/01/19 00:12:03;;;;;;;;;;;;;;;-3.50;100.00;100790.34;4899849;29;19923;-74
2024/01/19 00:14:28;;;;;;;;;;;;;;;-3.44;100.00;100786.44;4898223;29;20011;-73
2024/01/19 00:16:53;;;;;;;;;;;;;;;-3.45;100.00;100792.69;4898731;29;19923;-74
2024/01/19 00:19:18;;;;;;;;;;;;;;;-3.54;100.00;100796.78;4900470;29;19931;-74
2024/01/19 00:21:44;;;;;;;;;;;;;;;-3.63;100.00;100801.84;4897572;29;19923;-74
2024/01/19 00:24:10;;;;;;;;;;;;;;;-3.66;100.00;100810.78;4899197;29;19934;-74
2024/01/19 00:26:35;;;;;;;;;;;;;;;-3.67;100.00;100811.72;4899915;29;20013;-74
2024/01/19 00:29:00;;;;;;;;;;;;;;;-3.75;100.00;100825.41;4898686;29;19927;-74
2024/01/19 00:31:26;;;;;;;;;;;;;;;-3.86;100.00;100820.88;4898727;29;19927;-74
2024/01/19 00:33:51;;;;;;;;;;;;;;;-3.84;100.00;100815.53;4899463;29;19931;-74
2024/01/19 00:36:16;;;;;;;;;;;;;;;-3.81;100.00;100826.66;4898173;29;19923;-74
2024/01/19 00:38:42;;;;;;;;;;;;;;;-3.76;100.00;100828.16;4899266;29;19952;-75
2024/01/19 00:41:07;;;;;;;;;;;;;;;-3.68;100.00;100825.81;4899458;29;19931;-73
2024/01/19 00:43:32;;;;;;;;;;;;;;;-3.69;100.00;100827.63;4897234;29;20006;-74
2024/01/19 00:45:58;;;;;;;;;;;;;;;-3.66;100.00;100831.81;4898478;29;19939;-73
2024/01/19 00:48:23;;;;;;;;;;;;;;;-3.66;100.00;100839.72;4894780;29;19923;-73
2024/01/19 00:50:48;;;;;;;;;;;;;;;-3.74;100.00;100839.41;4898507;29;20348;-73
2024/01/19 00:53:13;;;;;;;;;;;;;;;-3.74;100.00;100836.78;4897986;29;20022;-73
2024/01/19 00:55:38;;;;;;;;;;;;;;;-3.69;100.00;100835.50;4898751;29;20379;-73
2024/01/19 00:58:04;;;;;;;;;;;;;;;-3.69;100.00;100839.91;4898420;29;20500;-72
2024/01/19 01:00:29;;;;;;;;;;;;;;;-3.71;100.00;100826.06;4898017;29;20474;-72
2024/01/19 01:02:57;;;;;;;;;;;;;;;-3.77;100.00;100832.56;4898555;29;20400;-72
2024/01/19 01:05:22;;;;;;;;;;;;;;;-3.83;100.00;100831.19;4897873;29;20030;-72
2024/01/19 01:07:47;;;;;;;;;;;;;;;-3.89;100.00;100834.25;4898275;29;19974;-72
2024/01/19 01:10:12;;;;;;;;;;;;;;;-3.96;100.00;100838.22;4898553;29;20038;-73
2024/01/19 01:12:40;;;;;;;;;;;;;;;-4.01;100.00;100850.84;4896603;29;19988;-72
2024/01/19 01:15:06;;;;;;;;;;;;;;;-3.94;100.00;100846.84;4897917;29;19924;-72
2024/01/19 01:17:31;;;;;;;;;;;;;;;-4.01;100.00;100850.84;4897368;29;20403;-72
2024/01/19 01:19:56;;;;;;;;;;;;;;;-3.95;100.00;100855.69;4898706;29;19983;-72
2024/01/19 01:22:22;;;;;;;;;;;;;;;-3.86;100.00;100865.56;4897571;29;19927;-72
2024/01/19 01:24:47;;;;;;;;;;;;;;;-3.74;100.00;100857.81;4897095;29;19971;-72
2024/01/19 01:27:13;;;;;;;;;;;;;;;-3.70;100.00;100856.66;4898546;29;19927;-72
2024/01/19 01:29:38;;;;;;;;;;;;;;;-3.62;100.00;100856.97;4897855;29;19967;-72
2024/01/19 01:32:03;;;;;;;;;;;;;;;-3.57;100.00;100860.16;4897445;29;19968;-72
2024/01/19 01:34:28;;;;;;;;;;;;;;;-3.71;100.00;100868.16;4898168;29;19966;-72
2024/01/19 01:36:54;;;;;;;;;;;;;;;-3.73;100.00;100876.13;4897816;29;20328;-72
2024/01/19 01:39:22;;;;;;;;;;;;;;;-3.69;100.00;100874.97;4896650;29;20014;-72
2024/01/19 01:41:48;;;;;;;;;;;;;;;-3.70;100.00;100875.94;4895755;29;20060;-73
2024/01/19 01:44:16;;;;;;;;;;;;;;;-3.62;100.00;100877.22;4895255;29;19975;-73
2024/01/19 01:46:42;;;;;;;;;;;;;;;-3.61;100.00;100876.22;4896850;29;19927;-73
2024/01/19 01:49:07;;;;;;;;;;;;;;;-3.64;100.00;100876.47;4897753;29;19957;-73
2024/01/19 01:51:33;;;;;;;;;;;;;;;-3.61;100.00;100879.72;4897056;29;19968;-73
2024/01/19 01:53:58;;;;;;;;;;;;;;;-3.58;100.00;100884.78;4896357;29;19987;-73
2024/01/19 01:56:23;;;;;;;;;;;;;;;-3.57;100.00;100883.84;4898071;29;20357;-73
2024/01/19 01:58:49;;;;;;;;;;;;;;;-3.54;100.00;100874.88;4880356;29;19971;-73
2024/01/19 02:01:14;;;;;;;;;;;;;;;-3.52;100.00;100879.09;4879352;29;19927;-73
2024/01/19 02:03:39;;;;;;;;;;;;;;;-3.53;100.00;100881.81;4897900;29;20407;-73
2024/01/19 02:06:04;;;;;;;;;;;;;;;-3.55;100.00;100883.72;4880460;29;20345;-73
2024/01/19 02:08:30;;;;;;;;;;;;;;;-3.48;100.00;100876.25;4896629;29;20301;-73
2024/01/19 02:10:55;;;;;;;;;;;;;;;-3.44;100.00;100883.81;4897583;29;20329;-73
2024/01/19 02:13:20;;;;;;;;;;;;;;;-3.44;100.00;100890.88;4896055;29;19923;-73
2024/01/19 02:15:45;;;;;;;;;;;;;;;-3.44;100.00;100888.25;4896603;29;19934;-73
2024/01/19 02:18:12;;;;;;;;;;;;;;;-3.48;100.00;100894.66;4897792;29;19931;-73
2024/01/19 02:20:37;;;;;;;;;;;;;;;-3.39;100.00;100894.06;4896918;29;19924;-73
2024/01/19 02:23:02;;;;;;;;;;;;;;;-3.34;100.00;100891.94;4896201;29;20409;-73
2024/01/19 02:25:27;;;;;;;;;;;;;;;-3.29;100.00;100892.47;4897195;29;20035;-73
2024/01/19 02:27:53;;;;;;;;;;;;;;;-3.25;100.00;100890.44;4896027;29;19978;-73
2024/01/19 02:30:18;;;;;;;;;;;;;;;-3.18;100.00;100894.34;4879903;29;19991;-73
2024/01/19 02:32:43;;;;;;;;;;;;;;;-3.11;100.00;100898.25;4896369;29;20073;-73
2024/01/19 02:35:08;;;;;;;;;;;;;;;-3.01;100.00;100911.63;4895987;29;19924;-73
2024/01/19 02:37:33;;;;;;;;;;;;;;;-2.97;100.00;100906.97;4895910;29;19924;-74
2024/01/19 02:40:00;;;;;;;;;;;;;;;-2.98;100.00;100913.19;4896613;29;19923;-73
2024/01/19 02:42:25;;;;;;;;;;;;;;;-2.98;100.00;100914.03;4896393;29;20411;-73
2024/01/19 02:44:50;;;;;;;;;;;;;;;-2.96;100.00;100920.03;4895338;29;19927;-73
2024/01/19 02:47:16;;;;;;;;;;;;;;;-2.88;100.00;100926.56;4896764;29;19930;-72
2024/01/19 02:49:41;;;;;;;;;;;;;;;-2.91;100.00;100925.81;4895811;29;20377;-73
2024/01/19 02:52:06;;;;;;;;;;;;;;;-2.94;100.00;100925.22;4894583;29;20388;-72
2024/01/19 02:54:31;;;;;;;;;;;;;;;-2.98;100.00;100929.81;4895269;29;19923;-72
2024/01/19 02:56:57;;;;;;;;;;;;;;;-2.99;100.00;100933.41;4896391;29;19923;-72
2024/01/19 02:59:22;;;;;;;;;;;;;;;-3.05;100.00;100928.59;4896272;29;19932;-72
2024/01/19 03:01:48;;;;;;;;;;;;;;;-3.10;100.00;100933.31;4895858;29;19923;-72
2024/01/19 03:04:13;;;;;;;;;;;;;;;-3.21;100.00;100929.66;4895485;29;19927;-72
2024/01/19 03:06:38;;;;;;;;;;;;;;;-3.26;100.00;100937.00;4896394;29;19924;-72
2024/01/19 03:09:04;;;;;;;;;;;;;;;-3.25;100.00;100933.44;4889726;29;19962;-72
2024/01/19 03:11:32;;;;;;;;;;;;;;;-3.28;100.00;100933.63;4895605;29;19937;-72
2024/01/19 03:13:57;;;;;;;;;;;;;;;-3.28;100.00;100935.44;4895672;29;19924;-72
2024/01/19 03:16:22;;;;;;;;;;;;;;;-3.29;100.00;100939.03;4892350;29;19930;-72
2024/01/19 03:18:48;;;;;;;;;;;;;;;-3.24;100.00;100950.06;4896517;29;19951;-72
2024/01/19 03:21:13;;;;;;;;;;;;;;;-3.23;100.00;100947.34;4896470;29;19981;-72
2024/01/19 03:23:38;;;;;;;;;;;;;;;-3.25;100.00;100954.50;4895250;29;19966;-72
2024/01/19 03:26:04;;;;;;;;;;;;;;;-3.25;100.00;100956.28;4896374;29;19924;-72
2024/01/19 03:28:29;;;;;;;;;;;;;;;-3.23;100.00;100962.28;4895865;29;19924;-72
2024/01/19 03:30:55;;;;;;;;;;;;;;;-3.23;100.00;100960.50;4895713;29;20272;-73
2024/01/19 03:33:20;;;;;;;;;;;;;;;-3.21;100.00;100963.88;4896257;29;19946;-73
2024/01/19 03:35:46;;;;;;;;;;;;;;;-3.22;100.00;100964.81;4898684;29;20303;-73
2024/01/19 03:38:11;;;;;;;;;;;;;;;-3.11;100.00;100960.59;4901409;29;19942;-73
2024/01/19 03:40:36;;;;;;;;;;;;;;;-3.10;100.00;100957.03;4904527;29;20367;-73
2024/01/19 03:43:02;;;;;;;;;;;;;;;-3.09;100.00;100961.34;4904806;29;20372;-73
2024/01/19 03:45:30;;;;;;;;;;;;;;;-3.04;100.00;100961.88;4903087;29;20381;-73
2024/01/19 03:47:55;;;;;;;;;;;;;;;-3.04;100.00;100969.78;4902877;29;19924;-73
2024/01/19 03:50:22;;;;;;;;;;;;;;;-3.06;100.00;100963.75;4902707;29;19949;-75
2024/01/19 03:52:47;;;;;;;;;;;;;;;-3.05;100.00;100968.09;4901246;29;19931;-75
2024/01/19 03:55:13;;;;;;;;;;;;;;;-3.02;100.00;100964.38;4886146;29;20002;-76
2024/01/19 03:57:38;;;;;;;;;;;;;;;-3.10;100.00;100975.44;4912207;29;19911;-74
2024/01/19 04:00:05;;;;;;;;;;;;;;;-3.12;100.00;100982.59;4913394;29;20400;-75
2024/01/19 04:02:30;;;;;;;;;;;;;;;-3.13;100.00;100983.56;4919526;29;19923;-75
2024/01/19 04:04:56;;;;;;;;;;;;;;;-3.10;100.00;100988.63;4910048;29;19924;-76
2024/01/19 04:07:22;;;;;;;;;;;;;;;-3.04;100.00;100985.56;4903402;29;19923;-75
2024/01/19 04:09:48;;;;;;;;;;;;;;;-2.93;100.00;100985.69;4903272;29;19930;-75
2024/01/19 04:12:14;;;;;;;;;;;;;;;-2.82;100.00;100986.72;4903441;29;19927;-75
2024/01/19 04:14:40;;;;;;;;;;;;;;;-2.85;100.00;100992.22;4901835;29;19947;-76
2024/01/19 04:17:05;;;;;;;;;;;;;;;-2.75;100.00;101004.66;4902863;29;20361;-75
2024/01/19 04:19:30;;;;;;;;;;;;;;;-2.75;100.00;101004.66;4903218;29;19924;-75
2024/01/19 04:21:55;;;;;;;;;;;;;;;-2.81;100.00;101012.97;4901243;29;19931;-76
2024/01/19 04:24:20;;;;;;;;;;;;;;;-2.90;100.00;101017.06;4902991;29;19924;-74
2024/01/19 04:26:46;;;;;;;;;;;;;;;-2.83;100.00;101017.50;4902537;29;19930;-75
2024/01/19 04:29:11;;;;;;;;;;;;;;;-2.84;100.00;101007.91;4901117;29;19923;-75
2024/01/19 04:31:39;;;;;;;;;;;;;;;-2.95;100.00;101013.91;4902682;29;19930;-75
2024/01/19 04:34:04;;;;;;;;;;;;;;;-2.98;100.00;101019.38;4902159;29;19934;-74
2024/01/19 04:36:30;;;;;;;;;;;;;;;-3.09;100.00;101028.00;4901360;29;19931;-74
2024/01/19 04:38:55;;;;;;;;;;;;;;;-3.17;100.00;101018.94;4902565;29;20295;-75
2024/01/19 04:41:20;;;;;;;;;;;;;;;-3.19;100.00;101024.31;4901867;29;19923;-75
2024/01/19 04:43:45;;;;;;;;;;;;;;;-3.20;100.00;101025.25;4901760;29;19924;-75
2024/01/19 04:46:11;;;;;;;;;;;;;;;-3.11;100.00;101035.19;4901711;29;19923;-76
2024/01/19 04:48:36;;;;;;;;;;;;;;;-3.13;100.00;101047.63;4896994;29;19960;-76
2024/01/19 04:51:01;;;;;;;;;;;;;;;-3.12;100.00;101067.75;4898423;29;19955;-75
2024/01/19 04:53:28;;;;;;;;;;;;;;;-3.21;100.00;101076.22;4898954;29;19979;-75
2024/01/19 04:55:53;;;;;;;;;;;;;;;-3.25;100.00;101072.97;4898957;29;19927;-75
2024/01/19 04:58:18;;;;;;;;;;;;;;;-3.23;100.00;101084.25;4898533;29;19931;-75
2024/01/19 05:00:44;;;;;;;;;;;;;;;-3.29;100.00;101073.28;4881666;29;19923;-75
2024/01/19 05:03:10;;;;;;;;;;;;;;;-3.37;100.00;101076.41;4898541;29;20130;-75
2024/01/19 05:05:35;;;;;;;;;;;;;;;-3.35;100.00;101088.53;4898535;29;19924;-75
2024/01/19 05:08:00;;;;;;;;;;;;;;;-3.38;100.00;101087.91;4898534;29;20022;-75
2024/01/19 05:10:26;;;;;;;;;;;;;;;-3.53;100.00;101095.81;4898797;29;20395;-75
2024/01/19 05:12:51;;;;;;;;;;;;;;;-3.45;100.00;101094.50;4898390;29;20416;-75
2024/01/19 05:15:16;;;;;;;;;;;;;;;-3.35;100.00;101091.16;4897950;29;19924;-75
2024/01/19 05:17:41;;;;;;;;;;;;;;;-3.30;100.00;101090.84;4898603;29;19971;-75
2024/01/19 05:20:07;;;;;;;;;;;;;;;-3.23;100.00;101094.78;4897854;29;19923;-75
2024/01/19 05:22:33;;;;;;;;;;;;;;;-3.28;100.00;101099.50;4897887;29;19931;-75
2024/01/19 05:24:58;;;;;;;;;;;;;;;-3.27;100.00;101103.81;4898653;29;20142;-75
2024/01/19 05:27:23;;;;;;;;;;;;;;;-3.21;100.00;101103.44;4897965;29;19955;-75
2024/01/19 05:29:49;;;;;;;;;;;;;;;-3.22;100.00;101116.69;4897776;29;19924;-74
2024/01/19 05:32:14;;;;;;;;;;;;;;;-3.27;100.00;101114.34;4898008;29;19924;-76
2024/01/19 05:34:39;;;;;;;;;;;;;;;-3.27;100.00;101119.63;4897034;29;19931;-75
2024/01/19 05:37:04;;;;;;;;;;;;;;;-3.33;100.00;101117.38;4897962;29;19930;-75
2024/01/19 05:39:30;;;;;;;;;;;;;;;-3.38;100.00;101114.22;4898398;29;20391;-75
2024/01/19 05:41:55;;;;;;;;;;;;;;;-3.49;100.00;101125.44;4897953;29;19930;-75
2024/01/19 05:44:20;;;;;;;;;;;;;;;-3.60;100.00;101118.22;4897813;29;19927;-74
2024/01/19 05:46:45;;;;;;;;;;;;;;;-3.85;100.00;101125.03;4897803;29;19931;-74
2024/01/19 05:49:10;;;;;;;;;;;;;;;-4.06;100.00;101131.66;4897423;29;19923;-76
2024/01/19 05:51:36;;;;;;;;;;;;;;;-4.07;100.00;101146.56;4897402;29;20344;-74
2024/01/19 05:54:01;;;;;;;;;;;;;;;-4.02;100.00;101152.41;4897921;29;19923;-76
2024/01/19 05:56:26;;;;;;;;;;;;;;;-3.98;100.00;101150.41;4898138;29;19951;-76
2024/01/19 05:58:51;;;;;;;;;;;;;;;-4.07;100.00;101149.19;4896603;29;20396;-76
2024/01/19 06:01:17;;;;;;;;;;;;;;;-4.12;100.00;101157.38;4898317;29;20306;-75
2024/01/19 06:03:42;;;;;;;;;;;;;;;-4.03;100.00;101157.72;4897296;29;20386;-75
2024/01/19 06:06:07;;;;;;;;;;;;;;;-4.09;100.00;101161.59;4896156;29;19930;-76
2024/01/19 06:08:33;;;;;;;;;;;;;;;-4.15;100.00;101154.09;4880385;29;19931;-76
2024/01/19 06:10:58;;;;;;;;;;;;;;;-4.15;100.00;101165.44;4896805;29;19940;-76
2024/01/19 06:13:24;;;;;;;;;;;;;;;-4.11;100.00;101161.69;4896495;29;19928;-76
2024/01/19 06:15:49;;;;;;;;;;;;;;;-4.18;100.00;101170.06;4897373;29;20336;-76
2024/01/19 06:18:14;;;;;;;;;;;;;;;-4.29;100.00;101183.84;4897348;29;20312;-76
2024/01/19 06:20:42;;;;;;;;;;;;;;;-4.32;100.00;101178.78;4895524;29;19972;-76
2024/01/19 06:23:08;;;;;;;;;;;;;;;-4.30;100.00;101192.66;4896387;29;19923;-76
2024/01/19 06:25:33;;;;;;;;;;;;;;;-4.20;100.00;101187.69;4897466;29;19958;-75
2024/01/19 06:27:59;;;;;;;;;;;;;;;-4.13;100.00;101189.88;4896050;29;20288;-76
2024/01/19 06:30:24;;;;;;;;;;;;;;;-4.11;100.00;101190.63;4897112;29;20064;-75
2024/01/19 06:32:49;;;;;;;;;;;;;;;-4.11;100.00;101198.50;4897421;29;19984;-75
2024/01/19 06:35:14;;;;;;;;;;;;;;;-4.07;100.00;101196.53;4896011;29;19927;-75
2024/01/19 06:37:42;;;;;;;;;;;;;;;-4.12;100.00;101202.06;4896971;29;19955;-75
2024/01/19 06:40:08;;;;;;;;;;;;;;;-4.13;100.00;101200.38;4897674;29;19927;-75
2024/01/19 06:42:34;;;;;;;;;;;;;;;-4.19;100.00;101207.78;4896141;29;19927;-75
2024/01/19 06:44:59;;;;;;;;;;;;;;;-4.25;100.00;101224.78;4896293;29;19965;-75
2024/01/19 06:47:24;;;;;;;;;;;;;;;-4.30;100.00;101230.28;4897538;29;20103;-75
2024/01/19 06:49:50;;;;;;;;;;;;;;;-4.35;100.00;101229.75;4895812;29;20059;-75
2024/01/19 06:52:15;;;;;;;;;;;;;;;-4.32;100.00;101231.34;4896744;29;19924;-75
2024/01/19 06:54:40;;;;;;;;;;;;;;;-4.33;100.00;101243.66;4897644;29;20372;-74
2024/01/19 06:57:06;;;;;;;;;;;;;;;-4.36;100.00;101245.59;4895788;29;20392;-75
2024/01/19 06:59:32;;;;;;;;;;;;;;;-4.26;100.00;101249.38;4896451;29;20751;-75
2024/01/19 07:01:57;;;;;;;;;;;;;;;-4.27;100.00;101242.44;4897405;29;19931;-75
2024/01/19 07:04:22;;;;;;;;;;;;;;;-4.21;100.00;101252.56;4894912;29;19924;-75
2024/01/19 07:06:48;;;;;;;;;;;;;;;-4.27;100.00;101251.16;4895928;29;19927;-76
2024/01/19 07:09:13;;;;;;;;;;;;;;;-4.21;100.00;101265.72;4893561;29;19934;-76
2024/01/19 07:11:38;;;;;;;;;;;;;;;-4.26;100.00;101265.16;4878129;29;20463;-76
2024/01/19 07:14:04;;;;;;;;;;;;;;;-4.24;100.00;101262.41;4894832;29;19923;-75
2024/01/19 07:16:29;;;;;;;;;;;;;;;-4.23;100.00;101264.94;4894011;29;19931;-77
2024/01/19 07:18:54;;;;;;;;;;;;;;;-4.27;100.00;101266.91;4894435;29;19923;-75
2024/01/19 07:21:19;;;;;;;;;;;;;;;-4.20;100.00;101270.03;4894554;29;20109;-80
2024/01/19 07:23:44;;;;;;;;;;;;;;;-4.26;100.00;101275.66;4894792;29;19930;-75
2024/01/19 07:26:10;;;;;;;;;;;;;;;-4.29;100.00;101278.47;4894165;29;19939;-73
2024/01/19 07:28:35;;;;;;;;;;;;;;;-4.25;100.00;101280.00;4894637;29;20311;-74
2024/01/19 07:31:01;;;;;;;;;;;;;;;-4.28;100.00;101280.16;4894774;29;19924;-74
2024/01/19 07:33:26;;;;;;;;;;;;;;;-4.30;100.00;101274.16;4894915;29;19967;-74
2024/01/19 07:35:52;;;;;;;;;;;;;;;-4.23;100.00;101285.97;4894511;29;19975;-76
2024/01/19 07:38:17;;;;;;;;;;;;;;;-4.30;100.00;101284.66;4893275;29;20340;-76
2024/01/19 07:40:42;;;;;;;;;;;;;;;-4.31;100.00;101281.16;4894298;29;20412;-76
2024/01/19 07:43:07;;;;;;;;;;;;;;;-4.31;100.00;101280.34;4894248;29;20325;-76
2024/01/19 07:45:33;;;;;;;;;;;;;;;-4.31;100.00;101289.06;4893878;29;20361;-76
2024/01/19 07:47:58;;;;;;;;;;;;;;;-4.22;100.00;101281.59;4894628;29;19987;-76
2024/01/19 07:50:25;;;;;;;;;;;;;;;-4.31;100.00;101286.44;4893239;29;22600;-76
2024/01/19 07:52:50;;;;;;;;;;;;;;;-4.24;100.00;101297.47;4893681;29;20023;-75
2024/01/19 07:55:16;;;;;;;;;;;;;;;-4.20;100.00;101304.22;4894618;29;19927;-75
2024/01/19 07:57:41;;;;;;;;;;;;;;;-4.19;100.00;101310.31;4887086;29;19927;-74
2024/01/19 08:00:07;;;;;;;;;;;;;;;-4.21;100.00;101313.03;4894631;29;20273;-74
2024/01/19 08:02:32;;;;;;;;;;;;;;;-4.23;100.00;101317.53;4894322;29;19923;-74
2024/01/19 08:04:57;;;;;;;;;;;;;;;-4.11;100.00;101322.09;4893785;29;19987;-74
2024/01/19 08:07:24;;;;;;;;;;;;;;;-4.15;100.00;101325.81;4893721;29;19927;-73
2024/01/19 08:09:49;;;;;;;;;;;;;;;-4.03;100.00;101331.28;4894181;29;19933;-75
2024/01/19 08:12:15;;;;;;;;;;;;;;;-4.07;100.00;101320.13;4894039;29;19923;-73
2024/01/19 08:14:40;;;;;;;;;;;;;;;-4.06;100.00;101336.75;4893403;29;19931;-73
2024/01/19 08:17:05;;;;;;;;;;;;;;;-4.04;100.00;101337.47;4893884;29;20300;-73
2024/01/19 08:19:30;;;;;;;;;;;;;;;-3.96;100.00;101337.91;4893114;29;20332;-72
2024/01/19 08:21:56;;;;;;;;;;;;;;;-3.83;100.00;101340.66;4896163;29;20406;-73
2024/01/19 08:24:21;;;;;;;;;;;;;;;-3.89;100.00;101348.91;4898327;29;20401;-73
2024/01/19 08:26:46;;;;;;;;;;;;;;;-3.86;100.00;101356.63;4896880;29;20382;-73
2024/01/19 08:29:12;;;;;;;;;;;;;;;-3.82;100.00;101355.50;4897722;29;19932;-73
2024/01/19 08:31:37;;;;;;;;;;;;;;;-3.65;100.00;101359.75;4898193;29;19923;-74
2024/01/19 08:34:05;;;;;;;;;;;;;;;-3.72;100.00;101361.06;4896511;29;20360;-73
2024/01/19 08:36:31;;;;;;;;;;;;;;;-3.47;100.00;101370.09;4894765;29;19927;-73
2024/01/19 08:38:56;;;;;;;;;;;;;;;-3.27;100.00;101369.75;4898412;29;20336;-74
2024/01/19 08:41:24;;;;;;;;;;;;;;;-3.16;100.00;101376.13;4896065;29;19923;-77
2024/01/19 08:43:49;;;;;;;;;;;;;;;-3.25;100.00;101374.91;4896857;29;19923;-76
2024/01/19 08:46:15;;;;;;;;;;;;;;;-3.26;100.00;101384.59;4898269;29;20339;-74
2024/01/19 08:48:40;;;;;;;;;;;;;;;-3.34;100.00;101392.09;4896112;29;20384;-73
2024/01/19 08:51:06;;;;;;;;;;;;;;;-3.24;100.00;101388.00;4895956;29;20407;-73
2024/01/19 08:53:31;;;;;;;;;;;;;;;-3.26;100.00;101395.13;4898310;29;20427;-73
2024/01/19 08:55:57;;;;;;;;;;;;;;;-3.32;100.00;101400.75;4895185;29;20392;-72
2024/01/19 08:58:22;;;;;;;;;;;;;;;-3.24;100.00;101402.94;4896936;29;20296;-73
2024/01/19 09:00:47;;;;;;;;;;;;;;;-3.05;100.00;101398.22;4897311;29;19948;-73
2024/01/19 09:03:12;;;;;;;;;;;;;;;-2.87;100.00;101407.72;4895916;29;20108;-73
2024/01/19 09:05:37;;;;;;;;;;;;;;;-2.76;100.00;101407.91;4896357;29;19923;-73
2024/01/19 09:08:03;;;;;;;;;;;;;;;-2.95;100.00;101409.03;4896467;29;20420;-76
2024/01/19 09:10:29;;;;;;;;;;;;;;;-2.83;100.00;101415.34;4895226;29;19923;-73
2024/01/19 09:12:54;;;;;;;;;;;;;;;-2.88;100.00;101421.84;4895172;29;20372;-74
2024/01/19 09:15:19;;;;;;;;;;;;;;;-2.71;100.00;101426.91;4896695;29;19927;-74
2024/01/19 09:17:45;;;;;;;;;;;;;;;-2.79;100.00;101426.53;4895673;29;19924;-74
2024/01/19 09:20:10;;;;;;;;;;;;;;;-2.85;100.00;101429.56;4896436;29;19929;-73
2024/01/19 09:22:36;;;;;;;;;;;;;;;-2.53;100.00;101424.06;4897192;29;19931;-74
2024/01/19 09:25:01;;;;;;;;;;;;;;;-2.62;100.00;101431.59;4895207;29;19972;-74
2024/01/19 09:27:27;;;;;;;;;;;;;;;-2.38;100.00;101431.00;4896126;29;19949;-74
2024/01/19 09:29:52;;;;;;;;;;;;;;;-2.33;100.00;101442.09;4895979;29;19923;-74
2024/01/19 09:32:17;;;;;;;;;;;;;;;-2.47;100.00;101444.78;4896432;29;20017;-74
2024/01/19 09:34:43;;;;;;;;;;;;;;;-2.36;100.00;101451.97;4895573;29;19966;-74
2024/01/19 09:37:09;;;;;;;;;;;;;;;-2.30;100.00;101451.59;4895678;29;19938;-74
2024/01/19 09:39:34;;;;;;;;;;;;;;;-2.06;100.00;101449.16;4896137;29;20026;-74
2024/01/19 09:42:03;;;;;;;;;;;;;;;-1.88;100.00;101456.81;4895963;29;20042;-74
2024/01/19 09:44:29;;;;;;;;;;;;;;;-1.57;100.00;101466.19;4895759;29;20022;-74
2024/01/19 09:46:54;;;;;;;;;;;;;;;-1.51;100.00;101472.84;4879041;29;20014;-74
2024/01/19 09:49:30;;;;;;;;;;;;;;;-1.68;100.00;101472.19;4895534;29;19951;-74
2024/01/19 09:51:58;;;;;;;;;;;;;;;-1.41;100.00;101475.72;4878864;29;19924;-74
2024/01/19 09:54:28;;;;;;;;;;;;;;;-1.35;100.00;101482.38;4888717;29;19927;-74
2024/01/19 09:56:53;;;;;;;;;;;;;;;-1.52;100.00;101473.81;4896059;29;19927;-73
2024/01/19 09:59:18;;;;;;;;;;;;;;;-1.70;100.00;101486.44;4895426;29;19979;-74
2024/01/19 10:01:44;;;;;;;;;;;;;;;-1.63;100.00;101479.81;4896188;29;19951;-74
2024/01/19 10:04:10;;;;;;;;;;;;;;;-1.71;100.00;101490.03;4895147;29;20035;-74
2024/01/19 10:06:35;;;;;;;;;;;;;;;-1.80;100.00;101493.25;4878260;29;19932;-74
2024/01/19 10:09:01;;;;;;;;;;;;;;;-1.49;100.00;101492.09;4879171;29;19946;-75
2024/01/19 10:11:26;;;;;;;;;;;;;;;-1.24;100.00;101501.03;4878164;29;20379;-75
2024/01/19 10:13:51;;;;;;;;;;;;;;;-1.39;100.00;101501.06;4878311;29;20396;-75
2024/01/19 10:16:16;;;;;;;;;;;;;;;-1.51;100.00;101501.91;4896125;29;19924;-75
2024/01/19 10:18:42;;;;;;;;;;;;;;;-1.18;100.00;101505.88;4894881;29;20269;-75
2024/01/19 10:21:07;;;;;;;;;;;;;;;-1.22;100.00;101509.66;4877397;29;20288;-75
2024/01/19 10:23:32;;;;;;;;;;;;;;;-1.44;100.00;101513.75;4894849;29;20374;-75
2024/01/19 10:26:14;;;;;;;;;;;;;;;-1.44;100.00;101508.47;4894795;29;20300;-75
2024/01/19 10:28:39;;;;;;;;;;;;;;;-1.11;100.00;101515.09;4896082;29;20344;-74
2024/01/19 10:31:22;;;;;;;;;;;;;;;-1.13;100.00;101514.34;4896097;29;19930;-75
2024/01/19 10:33:54;;;;;;;;;;;;;;;-1.02;100.00;101513.63;4894521;29;20235;-74
2024/01/19 10:36:19;;;;;;;;;;;;;;;-0.97;100.00;101515.94;4894919;29;20292;-74
2024/01/19 10:38:44;;;;;;;;;;;;;;;-0.94;100.00;101513.09;4896105;29;19927;-74
2024/01/19 10:41:16;;;;;;;;;;;;;;;-0.89;100.00;101518.03;4894010;29;19938;-73
2024/01/19 10:43:41;;;;;;;;;;;;;;;-0.90;100.00;101524.28;4895452;29;19967;-74
2024/01/19 10:46:20;;;;;;;;;;;;;;;-0.75;100.00;101530.31;4894396;29;20003;-74
2024/01/19 10:48:50;;;;;;;;;;;;;;;-0.91;100.00;101526.09;4887590;29;20010;-74
2024/01/19 10:51:16;;;;;;;;;;;;;;;-0.68;100.00;101523.63;4893020;29;20453;-75
2024/01/19 10:53:41;;;;;;;;;;;;;;;-0.64;100.00;101527.75;4894260;29;19924;-74
2024/01/19 10:56:07;;;;;;;;;;;;;;;-0.61;100.00;101533.69;4892668;29;19923;-75
2024/01/19 10:58:33;;;;;;;;;;;;;;;-0.53;100.00;101535.78;4894193;29;20269;-74
2024/01/19 11:01:14;;;;;;;;;;;;;;;-0.42;100.00;101523.63;4892305;29;19951;-75
2024/01/19 11:03:40;;;;;;;;;;;;;;;-0.56;100.00;101529.88;4892781;29;19979;-75
2024/01/19 11:06:05;;;;;;;;;;;;;;;-0.57;100.00;101534.34;4877293;29;19924;-75
2024/01/19 11:08:31;;;;;;;;;;;;;;;-0.38;100.00;101531.22;4893077;29;19953;-74
2024/01/19 11:10:57;;;;;;;;;;;;;;;-0.41;100.00;101533.25;4892637;29;19935;-73
2024/01/19 11:13:22;;;;;;;;;;;;;;;-0.28;100.00;101528.78;4887156;29;19978;-74
2024/01/19 11:15:51;;;;;;;;;;;;;;;-0.20;100.00;101541.47;4877005;29;19979;-74
2024/01/19 11:18:16;;;;;;;;;;;;;;;-0.31;100.00;101545.72;4893908;29;20407;-73
2024/01/19 11:20:41;;;;;;;;;;;;;;;-0.36;100.00;101544.38;4893601;29;19963;-75
2024/01/19 11:23:07;;;;;;;;;;;;;;;-0.22;100.00;101544.22;4893716;29;19977;-74
2024/01/19 11:25:45;;;;;;;;;;;;;;;-0.27;100.00;101546.34;4893203;29;19939;-74
2024/01/19 11:28:24;;;;;;;;;;;;;;;0.00;100.00;101542.69;4893323;29;20447;-74
2024/01/19 11:31:08;;;;;;;;;;;;;;;-0.08;100.00;101542.38;4893316;29;20406;-74
2024/01/19 11:33:33;;;;;;;;;;;;;;;0.03;100.00;101541.63;4892868;29;19928;-75
2024/01/19 11:35:58;;;;;;;;;;;;;;;0.05;100.00;101537.91;4893957;29;19948;-75
2024/01/19 11:38:43;;;;;;;;;;;;;;;0.10;100.00;101543.72;4893357;29;19924;-75
2024/01/19 11:41:10;;;;;;;;;;;;;;;0.07;100.00;101543.09;4892880;29;19930;-76
2024/01/19 11:43:44;;;;;;;;;;;;;;;0.27;100.00;101541.63;4893156;29;20019;-76
2024/01/19 11:46:12;;;;;;;;;;;;;;;0.66;100.00;101544.09;4894710;29;19948;-75
2024/01/19 11:48:41;;;;;;;;;;;;;;;0.73;100.00;101532.06;4877051;29;19931;-75
2024/01/19 11:51:07;;;;;;;;;;;;;;;0.85;100.00;101531.13;4893199;29;20022;-75
2024/01/19 11:53:51;;;;;;;;;;;;;;;0.53;100.00;101534.41;4894431;29;20014;-75
2024/01/19 11:56:22;;;;;;;;;;;;;;;0.44;100.00;101541.25;4893880;29;19924;-75
2024/01/19 11:58:47;;;;;;;;;;;;;;;0.59;100.00;101543.69;4897712;29;20180;-74
2024/01/19 12:01:12;;;;;;;;;;;;;;;0.83;100.00;101534.88;4897737;29;20530;-74
2024/01/19 12:03:38;;;;;;;;;;;;;;;1.23;100.00;101538.94;4897623;29;19971;-75
2024/01/19 12:06:04;;;;;;;;;;;;;;;2.55;100.00;101530.16;4896638;29;19919;-75
2024/01/19 12:08:29;;;;;;;;;;;;;;;3.85;92.51;101554.72;4897224;29;19983;-76
2024/01/19 12:11:07;;;;;;;;;;;;;;;4.53;85.79;101560.16;4896096;29;19927;-75
2024/01/19 12:13:33;;;;;;;;;;;;;;;4.59;84.61;101547.25;4896796;29;20006;-76
2024/01/19 12:15:58;;;;;;;;;;;;;;;6.27;76.20;101551.06;4891865;29;20030;-76
2024/01/19 12:18:24;;;;;;;;;;;;;;;6.46;72.00;101550.94;4878636;29;20024;-76
2024/01/19 12:20:52;;;;;;;;;;;;;;;6.82;70.61;101563.44;4896419;29;20415;-76
2024/01/19 12:23:18;;;;;;;;;;;;;;;5.46;74.05;101566.78;4897110;29;19927;-76